createdAt,value
2023-03-03T00:01:15.420Z,8.32
2023-03-03T00:03:42.345Z,4.50
2023-03-03T00:06:12.047Z,26.42
2023-03-03T00:08:39.911Z,2.72
2023-03-03T00:11:07.762Z,3.35
2023-03-03T00:13:44.826Z,2.78
2023-03-03T00:16:13.970Z,12.82
2023-03-03T00:18:44.259Z,19.23
2023-03-03T00:21:29.605Z,5.25
2023-03-03T00:24:14.517Z,2.95
2023-03-03T00:26:44.386Z,3.72
2023-03-03T00:29:31.004Z,5.05
2023-03-03T00:32:25.835Z,3.42
2023-03-03T00:34:55.124Z,5.95
2023-03-03T00:37:30.727Z,9.32
2023-03-03T00:40:09.731Z,3.20
2023-03-03T00:42:36.323Z,4.15
2023-03-03T00:45:37.136Z,3.35
2023-03-03T00:48:35.540Z,10.98
2023-03-03T00:51:27.568Z,3.88
2023-03-03T00:53:54.875Z,4.65
2023-03-03T00:56:21.538Z,4.07
2023-03-03T00:58:48.323Z,5.25
2023-03-03T01:01:16.281Z,4.47
2023-03-03T01:03:43.133Z,5.30
2023-03-03T01:06:10.921Z,12.40
2023-03-03T01:08:38.131Z,10.02
2023-03-03T01:11:10.594Z,8.05
2023-03-03T01:13:39.306Z,8.45
2023-03-03T01:16:06.382Z,6.32
2023-03-03T01:18:33.323Z,6.47
2023-03-03T01:21:01.900Z,6.22
2023-03-03T01:23:28.897Z,6.07
2023-03-03T01:25:55.567Z,7.55
2023-03-03T01:28:22.600Z,12.50
2023-03-03T01:30:49.288Z,3.00
2023-03-03T01:33:15.881Z,5.70
2023-03-03T01:35:48.946Z,5.85
2023-03-03T01:38:15.989Z,6.22
2023-03-03T01:40:42.664Z,4.80
2023-03-03T01:43:12.032Z,3.78
2023-03-03T01:46:02.029Z,7.50
2023-03-03T01:48:34.367Z,8.20
2023-03-03T01:51:10.512Z,8.35
2023-03-03T01:53:44.538Z,25.75
2023-03-03T01:56:11.440Z,6.05
2023-03-03T01:58:43.943Z,7.88
2023-03-03T02:01:15.621Z,8.75
2023-03-03T02:03:43.893Z,7.35
2023-03-03T02:06:15.204Z,9.32
2023-03-03T02:08:54.407Z,12.18
2023-03-03T02:11:22.411Z,29.90
2023-03-03T02:13:49.144Z,9.48
2023-03-03T02:16:16.005Z,11.45
2023-03-03T02:18:42.665Z,9.05
2023-03-03T02:21:14.294Z,15.60
2023-03-03T02:23:56.338Z,11.13
2023-03-03T02:26:26.187Z,9.40
2023-03-03T02:28:53.078Z,11.20
2023-03-03T02:31:22.521Z,10.15
2023-03-03T02:33:51.438Z,9.98
2023-03-03T02:36:44.182Z,9.77
2023-03-03T02:39:22.081Z,10.18
2023-03-03T02:42:08.863Z,9.45
2023-03-03T02:44:36.047Z,10.90
2023-03-03T02:47:02.667Z,11.68
2023-03-03T02:49:32.546Z,13.18
2023-03-03T02:52:00.792Z,14.00
2023-03-03T02:54:30.756Z,23.42
2023-03-03T02:56:58.282Z,16.10
2023-03-03T02:59:24.922Z,10.65
2023-03-03T03:01:52.887Z,18.58
2023-03-03T03:04:22.524Z,12.77
2023-03-03T03:06:49.588Z,14.75
2023-03-03T03:09:17.115Z,14.77
2023-03-03T03:11:44.513Z,12.05
2023-03-03T03:14:13.253Z,11.65
2023-03-03T03:16:40.434Z,18.05
2023-03-03T03:19:07.757Z,11.88
2023-03-03T03:21:34.693Z,17.80
2023-03-03T03:24:01.288Z,12.57
2023-03-03T03:26:27.957Z,10.35
2023-03-03T03:28:55.072Z,17.08
2023-03-03T03:31:22.608Z,13.27
2023-03-03T03:33:49.215Z,12.35
2023-03-03T03:36:16.410Z,12.60
2023-03-03T03:38:43.214Z,11.93
2023-03-03T03:41:11.010Z,11.88
2023-03-03T03:43:37.881Z,12.32
2023-03-03T03:46:04.674Z,14.27
2023-03-03T03:48:31.280Z,11.95
2023-03-03T03:50:57.901Z,13.25
2023-03-03T03:53:24.510Z,19.38
2023-03-03T03:55:51.198Z,17.38
2023-03-03T03:58:18.596Z,15.07
2023-03-03T04:00:46.572Z,14.52
2023-03-03T04:03:14.527Z,26.55
2023-03-03T04:05:41.427Z,19.70
2023-03-03T04:08:08.961Z,22.25
2023-03-03T04:10:35.863Z,13.45
2023-03-03T04:13:02.507Z,31.75
2023-03-03T04:15:29.149Z,27.25
2023-03-03T04:17:55.729Z,17.10
2023-03-03T04:20:22.293Z,22.85
2023-03-03T04:22:49.001Z,23.23
2023-03-03T04:25:17.124Z,22.70
2023-03-03T04:27:44.291Z,13.95
2023-03-03T04:30:12.430Z,15.15
2023-03-03T04:32:39.056Z,14.90
2023-03-03T04:35:08.417Z,13.68
2023-03-03T04:37:36.042Z,13.65
2023-03-03T04:40:03.560Z,13.05
2023-03-03T04:42:30.188Z,13.27
2023-03-03T04:44:56.843Z,12.85
2023-03-03T04:47:23.480Z,14.30
2023-03-03T04:49:50.048Z,16.85
2023-03-03T04:52:16.712Z,15.23
2023-03-03T04:54:43.368Z,23.13
2023-03-03T04:57:09.981Z,13.48
2023-03-03T04:59:36.840Z,18.08
2023-03-03T05:02:05.218Z,13.38
2023-03-03T05:04:32.987Z,11.02
2023-03-03T05:06:59.655Z,15.98
2023-03-03T05:09:26.339Z,16.67
2023-03-03T05:11:53.530Z,15.48
2023-03-03T05:14:20.574Z,14.65
2023-03-03T05:16:47.388Z,15.70
2023-03-03T05:19:14.053Z,14.52
2023-03-03T05:21:43.515Z,15.65
2023-03-03T05:24:11.765Z,16.15
2023-03-03T05:26:39.616Z,14.70
2023-03-03T05:29:06.957Z,8.20
2023-03-03T05:31:33.927Z,14.30
2023-03-03T05:34:00.769Z,15.52
2023-03-03T05:36:27.429Z,15.48
2023-03-03T05:38:54.022Z,18.98
2023-03-03T05:41:20.658Z,14.70
2023-03-03T05:43:47.292Z,17.30
2023-03-03T05:46:13.972Z,16.45
2023-03-03T05:48:40.635Z,19.25
2023-03-03T05:51:07.292Z,16.75
2023-03-03T05:53:34.133Z,16.27
2023-03-03T05:56:00.749Z,21.33
2023-03-03T05:58:27.643Z,16.08
2023-03-03T06:00:54.414Z,17.65
2023-03-03T06:03:21.189Z,22.02
2023-03-03T06:05:48.085Z,20.40
2023-03-03T06:08:14.730Z,24.88
2023-03-03T06:10:41.372Z,17.33
2023-03-03T06:13:07.958Z,14.85
2023-03-03T06:15:34.591Z,15.90
2023-03-03T06:18:01.252Z,22.80
2023-03-03T06:20:27.887Z,15.68
2023-03-03T06:22:54.462Z,17.25
2023-03-03T06:25:21.269Z,32.92
2023-03-03T06:27:47.844Z,24.40
2023-03-03T06:30:14.792Z,19.05
2023-03-03T06:32:41.412Z,19.92
2023-03-03T06:35:08.179Z,22.35
2023-03-03T06:37:34.786Z,28.50
2023-03-03T06:40:01.499Z,22.20
2023-03-03T06:42:28.084Z,22.17
2023-03-03T06:44:54.701Z,29.05
2023-03-03T06:47:21.380Z,15.15
2023-03-03T06:49:48.043Z,16.63
2023-03-03T06:52:19.496Z,26.15
2023-03-03T06:54:46.144Z,16.75
2023-03-03T06:57:22.555Z,14.30
2023-03-03T06:59:53.567Z,14.32
2023-03-03T07:02:22.070Z,16.67
2023-03-03T07:04:48.957Z,16.75
2023-03-03T07:07:24.532Z,27.73
2023-03-03T07:09:56.730Z,17.08
2023-03-03T07:12:26.780Z,17.02
2023-03-03T07:15:13.020Z,27.23
2023-03-03T07:17:50.968Z,16.98
2023-03-03T07:20:35.483Z,33.70
2023-03-03T07:23:20.910Z,16.33
2023-03-03T07:25:48.499Z,18.20
2023-03-03T07:28:27.172Z,20.40
2023-03-03T07:30:55.080Z,30.10
2023-03-03T07:33:31.756Z,16.33
2023-03-03T07:36:00.287Z,16.92
2023-03-03T07:38:42.507Z,17.55
2023-03-03T07:41:20.747Z,24.70
2023-03-03T07:43:55.052Z,21.55
2023-03-03T07:46:23.904Z,22.48
2023-03-03T07:48:51.772Z,25.90
2023-03-03T07:51:23.096Z,19.27
2023-03-03T07:53:49.733Z,15.88
2023-03-03T07:56:26.763Z,17.85
2023-03-03T07:58:55.960Z,16.92
2023-03-03T08:01:43.401Z,17.83
2023-03-03T08:04:21.646Z,39.50
2023-03-03T08:06:53.679Z,19.88
2023-03-03T08:09:20.390Z,23.75
2023-03-03T08:12:00.042Z,28.30
2023-03-03T08:14:30.253Z,18.00
2023-03-03T08:16:59.813Z,16.13
2023-03-03T08:19:29.799Z,21.25
2023-03-03T08:22:09.278Z,17.77
2023-03-03T08:24:38.377Z,35.40
2023-03-03T08:27:05.141Z,16.63
2023-03-03T08:29:31.735Z,14.43
2023-03-03T08:31:58.482Z,20.05
2023-03-03T08:34:25.148Z,25.02
2023-03-03T08:36:52.104Z,17.52
2023-03-03T08:39:18.771Z,20.05
2023-03-03T08:41:46.140Z,18.20
2023-03-03T08:44:12.743Z,21.13
2023-03-03T08:46:39.448Z,27.77
2023-03-03T08:49:06.124Z,21.80
2023-03-03T08:51:34.456Z,27.13
2023-03-03T08:54:01.254Z,35.90
2023-03-03T08:56:27.996Z,22.55
2023-03-03T08:59:02.165Z,24.38
2023-03-03T09:01:32.912Z,27.63
2023-03-03T09:03:59.902Z,26.05
2023-03-03T09:06:26.564Z,19.55
2023-03-03T09:08:54.662Z,26.50
2023-03-03T09:11:27.581Z,20.13
2023-03-03T09:14:02.767Z,22.80
2023-03-03T09:16:34.797Z,23.45
2023-03-03T09:19:30.538Z,16.80
2023-03-03T09:22:03.283Z,12.20
2023-03-03T09:24:31.994Z,10.07
2023-03-03T09:26:59.643Z,18.83
2023-03-03T09:29:30.932Z,19.15
2023-03-03T09:32:14.780Z,21.80
2023-03-03T09:34:42.912Z,20.00
2023-03-03T09:37:33.970Z,18.83
2023-03-03T09:40:00.797Z,15.27
2023-03-03T09:42:56.822Z,18.00
2023-03-03T09:45:38.175Z,16.65
2023-03-03T09:48:15.490Z,15.50
2023-03-03T09:51:00.956Z,14.57
2023-03-03T09:53:54.350Z,22.42
2023-03-03T09:56:31.245Z,13.57
2023-03-03T09:59:00.741Z,16.92
2023-03-03T10:01:46.029Z,17.70
2023-03-03T10:04:50.834Z,17.55
2023-03-03T10:07:37.657Z,18.38
2023-03-03T10:10:31.860Z,15.90
2023-03-03T10:13:19.318Z,17.95
2023-03-03T10:16:11.075Z,18.17
2023-03-03T10:18:49.483Z,17.95
2023-03-03T10:21:42.360Z,19.05
2023-03-03T10:24:28.490Z,17.65
2023-03-03T10:27:13.888Z,6.78
2023-03-03T10:30:00.717Z,10.68
2023-03-03T10:32:49.485Z,17.67
2023-03-03T10:35:32.634Z,16.92
2023-03-03T10:38:14.638Z,17.73
2023-03-03T10:40:52.220Z,22.77
2023-03-03T10:43:47.674Z,20.08
2023-03-03T10:46:46.160Z,16.00
2023-03-03T10:50:10.039Z,16.88
2023-03-03T10:53:14.939Z,17.45
2023-03-03T10:55:53.310Z,16.42
2023-03-03T10:58:45.075Z,16.05
2023-03-03T11:01:26.066Z,17.13
2023-03-03T11:04:19.973Z,15.35
2023-03-03T11:06:57.682Z,17.25
2023-03-03T11:09:33.199Z,16.58
2023-03-03T11:12:16.583Z,16.05
2023-03-03T11:14:47.854Z,14.95
2023-03-03T11:17:26.261Z,16.42
2023-03-03T11:19:58.638Z,14.95
2023-03-03T11:22:37.886Z,17.58
2023-03-03T11:25:16.461Z,16.73
2023-03-03T11:27:51.992Z,14.82
2023-03-03T11:30:29.943Z,14.55
2023-03-03T11:33:18.656Z,15.65
2023-03-03T11:35:48.537Z,21.65
2023-03-03T11:38:17.868Z,16.38
2023-03-03T11:40:51.079Z,18.92
2023-03-03T11:43:36.699Z,13.00
2023-03-03T11:46:24.393Z,15.80
2023-03-03T11:49:03.402Z,18.75
2023-03-03T11:52:03.559Z,17.75
2023-03-03T11:54:46.326Z,14.48
2023-03-03T11:57:28.713Z,14.82
2023-03-03T12:00:15.775Z,16.92
2023-03-03T12:03:06.380Z,15.15
2023-03-03T12:06:17.439Z,24.58
2023-03-03T12:09:03.236Z,15.30
2023-03-03T12:11:51.652Z,17.33
2023-03-03T12:14:25.485Z,13.27
2023-03-03T12:17:06.492Z,21.00
2023-03-03T12:19:44.750Z,14.20
2023-03-03T12:22:20.959Z,15.40
2023-03-03T12:24:50.415Z,15.05
2023-03-03T12:27:31.715Z,16.23
2023-03-03T12:30:20.572Z,18.27
2023-03-03T12:33:08.800Z,14.32
2023-03-03T12:35:41.501Z,14.23
2023-03-03T12:38:25.934Z,14.05
2023-03-03T12:41:06.807Z,21.80
2023-03-03T12:43:54.432Z,14.05
2023-03-03T12:46:39.139Z,16.13
2023-03-03T12:49:05.942Z,19.30
2023-03-03T12:52:10.322Z,13.93
2023-03-03T12:54:45.810Z,17.67
2023-03-03T12:57:30.497Z,13.73
2023-03-03T13:00:12.373Z,18.90
2023-03-03T13:02:59.019Z,13.95
2023-03-03T13:05:31.683Z,27.90
2023-03-03T13:08:31.691Z,12.45
2023-03-03T13:11:07.933Z,15.30
2023-03-03T13:13:40.642Z,11.10
2023-03-03T13:16:17.091Z,14.95
2023-03-03T13:18:52.918Z,11.60
2023-03-03T13:21:50.707Z,13.40
2023-03-03T13:24:33.195Z,14.80
2023-03-03T13:27:10.816Z,14.75
2023-03-03T13:29:48.325Z,16.05
2023-03-03T13:32:19.764Z,17.75
2023-03-03T13:35:00.544Z,13.60
2023-03-03T13:37:29.637Z,15.50
2023-03-03T13:39:59.132Z,29.10
2023-03-03T13:42:47.344Z,19.17
2023-03-03T13:45:22.801Z,14.95
2023-03-03T13:48:15.844Z,10.57
2023-03-03T13:50:57.770Z,12.30
2023-03-03T13:53:52.914Z,16.15
2023-03-03T13:56:40.450Z,24.02
2023-03-03T13:59:40.748Z,22.15
2023-03-03T14:02:40.886Z,13.38
2023-03-03T14:05:30.221Z,15.90
2023-03-03T14:08:07.386Z,15.95
2023-03-03T14:10:58.739Z,18.38
2023-03-03T14:13:48.427Z,20.85
2023-03-03T14:16:49.035Z,17.90
2023-03-03T14:19:44.025Z,21.15
2023-03-03T14:22:28.967Z,16.92
2023-03-03T14:25:05.946Z,17.70
2023-03-03T14:27:35.569Z,17.23
2023-03-03T14:30:32.036Z,19.42
2023-03-03T14:33:07.977Z,15.88
2023-03-03T14:35:43.500Z,17.08
2023-03-03T14:38:18.814Z,15.18
2023-03-03T14:40:47.282Z,15.30
2023-03-03T14:43:25.674Z,15.73
2023-03-03T14:45:56.561Z,16.20
2023-03-03T14:48:25.895Z,14.25
2023-03-03T14:51:04.527Z,15.13
2023-03-03T14:53:44.560Z,14.55
2023-03-03T14:56:34.240Z,14.40
2023-03-03T14:59:19.999Z,14.30
2023-03-03T15:01:47.880Z,13.02
2023-03-03T15:04:14.532Z,13.55
2023-03-03T15:06:45.333Z,14.75
2023-03-03T15:09:43.250Z,14.43
2023-03-03T15:12:25.464Z,13.52
2023-03-03T15:15:13.613Z,13.80
2023-03-03T15:17:59.010Z,11.25
2023-03-03T15:20:40.857Z,13.68
2023-03-03T15:23:28.778Z,13.82
2023-03-03T15:26:14.198Z,14.05
2023-03-03T15:29:02.104Z,14.45
2023-03-03T15:31:49.695Z,11.88
2023-03-03T15:34:38.590Z,12.95
2023-03-03T15:37:27.272Z,11.68
2023-03-03T15:40:31.543Z,13.70
2023-03-03T15:43:24.433Z,12.65
2023-03-03T15:46:03.126Z,12.48
2023-03-03T15:48:45.005Z,13.57
2023-03-03T15:51:32.982Z,13.07
2023-03-03T15:54:31.552Z,11.35
2023-03-03T15:57:04.654Z,12.45
2023-03-03T15:59:50.950Z,12.27
2023-03-03T16:02:38.682Z,10.93
2023-03-03T16:05:31.460Z,10.68
2023-03-03T16:08:04.793Z,12.05
2023-03-03T16:10:55.372Z,10.90
2023-03-03T16:13:59.176Z,10.73
2023-03-03T16:16:36.221Z,11.10
2023-03-03T16:19:41.017Z,10.27
2023-03-03T16:22:16.798Z,10.13
2023-03-03T16:25:03.697Z,10.63
2023-03-03T16:27:44.917Z,10.68
2023-03-03T16:30:33.123Z,10.77
2023-03-03T16:33:19.247Z,11.18
2023-03-03T16:35:59.975Z,10.07
2023-03-03T16:38:57.973Z,10.60
2023-03-03T16:41:53.590Z,10.02
2023-03-03T16:44:20.122Z,9.80
2023-03-03T16:46:49.352Z,10.23
2023-03-03T16:49:33.203Z,9.52
2023-03-03T16:52:13.994Z,13.07
2023-03-03T16:54:54.261Z,12.13
2023-03-03T16:57:31.503Z,12.55
2023-03-03T17:00:19.382Z,11.18
2023-03-03T17:03:07.838Z,11.35
2023-03-03T17:05:44.219Z,10.73
2023-03-03T17:08:35.120Z,10.43
2023-03-03T17:11:32.020Z,10.55
2023-03-03T17:14:17.346Z,10.88
2023-03-03T17:17:09.074Z,11.45
2023-03-03T17:20:07.642Z,11.18
2023-03-03T17:22:37.276Z,9.93
2023-03-03T17:25:23.055Z,10.68
2023-03-03T17:28:15.895Z,10.23
2023-03-03T17:30:56.842Z,10.95
2023-03-03T17:33:41.648Z,10.68
2023-03-03T17:36:18.327Z,11.20
2023-03-03T17:39:18.880Z,11.05
2023-03-03T17:41:54.325Z,10.73
2023-03-03T17:44:20.930Z,13.73
2023-03-03T17:47:06.998Z,21.27
2023-03-03T17:50:15.885Z,13.82
2023-03-03T17:53:12.696Z,11.93
2023-03-03T17:55:54.406Z,11.75
2023-03-03T17:58:44.887Z,12.02
2023-03-03T18:01:18.845Z,12.07
2023-03-03T18:03:59.045Z,10.82
2023-03-03T18:06:47.361Z,10.95
2023-03-03T18:09:21.869Z,10.80
2023-03-03T18:12:10.320Z,11.32
2023-03-03T18:14:48.838Z,10.25
2023-03-03T18:17:35.450Z,11.48
2023-03-03T18:20:29.116Z,11.52
2023-03-03T18:22:55.910Z,10.90
2023-03-03T18:25:43.954Z,12.52
2023-03-03T18:28:22.124Z,14.77
2023-03-03T18:30:56.923Z,14.50
2023-03-03T18:33:58.221Z,12.48
2023-03-03T18:36:27.960Z,9.57
2023-03-03T18:38:57.511Z,10.88
2023-03-03T18:41:29.732Z,12.02
2023-03-03T18:44:00.830Z,10.13
2023-03-03T18:46:27.432Z,10.07
2023-03-03T18:49:12.895Z,11.35
2023-03-03T18:51:39.491Z,10.65
2023-03-03T18:54:16.924Z,10.95
2023-03-03T18:56:49.448Z,12.88
2023-03-03T18:59:36.079Z,11.32
2023-03-03T19:02:20.869Z,10.18
2023-03-03T19:04:56.020Z,10.60
2023-03-03T19:07:29.844Z,10.60
2023-03-03T19:10:25.925Z,10.32
2023-03-03T19:12:56.749Z,8.95
2023-03-03T19:15:29.581Z,10.43
2023-03-03T19:17:58.144Z,10.60
2023-03-03T19:20:26.800Z,10.15
2023-03-03T19:23:10.926Z,10.18
2023-03-03T19:25:37.935Z,9.65
2023-03-03T19:28:17.431Z,10.20
2023-03-03T19:31:10.526Z,11.90
2023-03-03T19:33:52.301Z,10.82
2023-03-03T19:36:38.301Z,10.13
2023-03-03T19:39:27.998Z,11.60
2023-03-03T19:41:57.359Z,11.82
2023-03-03T19:44:37.689Z,13.85
2023-03-03T19:47:27.659Z,11.23
2023-03-03T19:50:12.839Z,11.32
2023-03-03T19:53:01.207Z,14.77
2023-03-03T19:56:06.245Z,13.40
2023-03-03T19:58:38.714Z,14.20
2023-03-03T20:01:17.857Z,13.88
2023-03-03T20:03:55.124Z,14.55
2023-03-03T20:06:59.339Z,13.70
2023-03-03T20:09:40.988Z,11.45
2023-03-03T20:12:33.242Z,14.98
2023-03-03T20:15:13.865Z,14.48
2023-03-03T20:18:01.711Z,13.85
2023-03-03T20:20:46.374Z,12.60
2023-03-03T20:23:25.167Z,13.32
2023-03-03T20:26:06.547Z,12.52
2023-03-03T20:28:57.605Z,13.98
2023-03-03T20:31:42.712Z,14.10
2023-03-03T20:34:37.638Z,15.93
2023-03-03T20:37:29.482Z,15.07
2023-03-03T20:40:29.252Z,14.65
2023-03-03T20:43:06.426Z,15.40
2023-03-03T20:45:41.873Z,14.20
2023-03-03T20:48:35.769Z,16.20
2023-03-03T20:51:18.751Z,12.65
2023-03-03T20:53:57.297Z,12.15
2023-03-03T20:56:28.455Z,16.17
2023-03-03T20:59:32.333Z,11.27
2023-03-03T21:02:27.205Z,14.10
2023-03-03T21:05:20.243Z,14.43
2023-03-03T21:08:03.568Z,15.50
2023-03-03T21:10:35.862Z,14.50
2023-03-03T21:13:32.805Z,17.30
2023-03-03T21:16:09.184Z,15.38
2023-03-03T21:18:35.878Z,16.65
2023-03-03T21:21:03.655Z,15.48
2023-03-03T21:23:30.364Z,16.17
2023-03-03T21:25:58.283Z,15.75
2023-03-03T21:28:31.774Z,14.90
2023-03-03T21:31:15.397Z,15.13
2023-03-03T21:33:49.868Z,15.55
2023-03-03T21:36:20.775Z,15.45
2023-03-03T21:38:47.661Z,15.13
2023-03-03T21:41:16.222Z,14.90
2023-03-03T21:43:44.565Z,14.20
2023-03-03T21:46:12.520Z,13.85
2023-03-03T21:48:42.885Z,14.48
2023-03-03T21:51:10.482Z,13.85
2023-03-03T21:53:37.088Z,14.55
2023-03-03T21:56:03.837Z,12.85
2023-03-03T21:58:30.436Z,12.55
2023-03-03T22:00:57.127Z,12.40
2023-03-03T22:03:23.808Z,12.35
2023-03-03T22:05:50.403Z,11.52
2023-03-03T22:08:22.740Z,11.20
2023-03-03T22:10:53.733Z,11.88
2023-03-03T22:13:20.744Z,11.07
2023-03-03T22:15:48.336Z,11.73
2023-03-03T22:18:18.118Z,10.80
2023-03-03T22:20:48.907Z,11.07
2023-03-03T22:23:15.801Z,9.30
2023-03-03T22:25:42.640Z,10.38
2023-03-03T22:28:09.513Z,9.00
2023-03-03T22:30:36.670Z,8.07
2023-03-03T22:33:03.761Z,6.35
2023-03-03T22:35:30.808Z,5.85
2023-03-03T22:37:57.799Z,6.25
2023-03-03T22:40:24.851Z,5.47
2023-03-03T22:42:51.662Z,5.25
2023-03-03T22:45:18.257Z,5.05
2023-03-03T22:47:44.892Z,5.00
2023-03-03T22:50:12.326Z,5.10
2023-03-03T22:52:38.885Z,4.45
2023-03-03T22:55:05.990Z,3.90
2023-03-03T22:57:32.579Z,4.32
2023-03-03T22:59:59.948Z,4.10
2023-03-03T23:02:26.634Z,4.13
2023-03-03T23:04:58.033Z,3.47
2023-03-03T23:07:26.286Z,3.75
2023-03-03T23:09:52.938Z,3.55
2023-03-03T23:12:20.003Z,3.55
2023-03-03T23:14:46.542Z,3.17
2023-03-03T23:17:13.198Z,4.15
2023-03-03T23:19:39.791Z,3.15
2023-03-03T23:22:06.406Z,3.45
2023-03-03T23:24:33.181Z,3.72
2023-03-03T23:27:00.650Z,3.30
2023-03-03T23:29:27.343Z,3.47
2023-03-03T23:31:54.156Z,3.08
2023-03-03T23:34:20.936Z,3.10
2023-03-03T23:36:47.919Z,3.00
2023-03-03T23:39:15.260Z,3.08
2023-03-03T23:41:41.981Z,2.78
2023-03-03T23:44:08.647Z,3.13
2023-03-03T23:46:35.341Z,3.08
2023-03-03T23:49:02.046Z,3.20
2023-03-03T23:51:28.758Z,3.30
2023-03-03T23:53:56.228Z,3.13
2023-03-03T23:56:23.274Z,3.08
2023-03-03T23:58:49.897Z,3.03
